Terminal Aerodrome Forecast
Issued by NWS

Current Version | Previous Version | Text Only | Print | Product List | Glossary Off
Versions: 1 2 3 4 5 6 7 8 9 10 11 12 13 14 15 16 17 18 19 20 21 22 23 24

000
FTUS41 KRLX 252333
TAFCKB
TAF
KCKB 252333Z 2600/2624 22005KT P6SM SHRA BKN025
     FM260500 24006KT P6SM SHRA OVC009
     FM261400 26009KT P6SM BKN013
     FM261700 26009KT P6SM BKN035=

USA.gov is the U.S. government's official web portal to all federal, state and local government web resources and services.